createdAt,value
2018-12-29T00:00:26.160Z,2.31
2018-12-29T00:01:26.140Z,2.29
2018-12-29T00:02:26.131Z,2.31
2018-12-29T00:03:26.103Z,2.3
2018-12-29T00:04:26.083Z,2.34
2018-12-29T00:05:26.074Z,2.33
2018-12-29T00:06:26.054Z,2.4
2018-12-29T00:07:26.034Z,2.36
2018-12-29T00:08:26.022Z,2.34
2018-12-29T00:09:25.997Z,2.3
2018-12-29T00:10:25.980Z,2.34
2018-12-29T00:11:25.972Z,2.31
2018-12-29T00:12:25.953Z,2.33
2018-12-29T00:13:25.930Z,2.31
2018-12-29T00:14:25.999Z,2.3
2018-12-29T00:15:25.898Z,2.38
2018-12-29T00:16:25.874Z,2.36
2018-12-29T00:17:25.860Z,2.38
2018-12-29T00:18:25.840Z,2.3
2018-12-29T00:19:25.826Z,2.27
2018-12-29T00:20:25.806Z,2.3
2018-12-29T00:21:25.802Z,2.34
2018-12-29T00:22:25.770Z,2.38
2018-12-29T00:23:25.510Z,2.34
2018-12-29T00:24:25.736Z,2.33
2018-12-29T00:25:25.717Z,2.3
2018-12-29T00:26:25.704Z,2.31
2018-12-29T00:27:25.683Z,2.26
2018-12-29T00:28:25.666Z,2.3
2018-12-29T00:29:25.654Z,2.29
2018-12-29T00:30:25.634Z,2.31
2018-12-29T00:31:25.612Z,2.3
2018-12-29T00:32:25.345Z,2.2
2018-12-29T00:33:25.345Z,2.3
2018-12-29T00:34:25.567Z,2.29
2018-12-29T00:35:25.545Z,2.29
2018-12-29T00:36:25.527Z,2.3
2018-12-29T00:37:25.518Z,2.3
2018-12-29T00:38:25.242Z,2.2
2018-12-29T00:39:25.517Z,2.24
2018-12-29T00:40:25.457Z,2.22
2018-12-29T00:41:25.189Z,2.23
2018-12-29T00:42:25.425Z,2.16
2018-12-29T00:43:25.158Z,2.18
2018-12-29T00:44:25.385Z,2.29
2018-12-29T00:45:25.375Z,2.3
2018-12-29T00:46:25.354Z,2.3
2018-12-29T00:47:25.340Z,2.34
2018-12-29T00:48:25.315Z,2.29
2018-12-29T00:49:25.297Z,2.26
2018-12-29T00:50:25.282Z,2.3
2018-12-29T00:51:25.014Z,2.23
2018-12-29T00:52:25.244Z,2.31
2018-12-29T00:53:24.977Z,2.24
2018-12-29T00:54:26.428Z,2.23
2018-12-29T00:55:25.198Z,2.29
2018-12-29T00:56:25.175Z,2.26
2018-12-29T00:57:25.163Z,2.29
2018-12-29T00:58:25.176Z,2.29
2018-12-29T00:59:25.121Z,2.27
2018-12-29T01:00:25.100Z,2.24
2018-12-29T01:01:25.086Z,2.22
2018-12-29T01:02:25.080Z,2.16
2018-12-29T01:03:25.055Z,2.26
2018-12-29T01:04:25.033Z,2.16
2018-12-29T01:05:25.022Z,2.16
2018-12-29T01:06:24.997Z,2.16
2018-12-29T01:07:24.976Z,2.16
2018-12-29T01:08:24.970Z,2.2
2018-12-29T01:09:24.700Z,2.2
2018-12-29T01:10:24.932Z,2.26
2018-12-29T01:11:24.918Z,2.22
2018-12-29T01:12:24.891Z,2.16
2018-12-29T01:13:24.877Z,2.13
2018-12-29T01:14:24.874Z,2.15
2018-12-29T01:15:24.840Z,2.2
2018-12-29T01:16:24.820Z,2.23
2018-12-29T01:17:24.803Z,2.23
2018-12-29T01:18:24.787Z,2.13
2018-12-29T01:19:24.777Z,2.22
2018-12-29T01:20:24.757Z,2.16
2018-12-29T01:21:24.730Z,2.23
2018-12-29T01:22:24.711Z,2.16
2018-12-29T01:23:24.698Z,2.18
2018-12-29T01:24:24.683Z,2.18
2018-12-29T01:25:24.663Z,2.22
2018-12-29T01:26:24.708Z,2.15
2018-12-29T01:27:24.630Z,2.18
2018-12-29T01:28:25.399Z,2.2
2018-12-29T01:29:24.589Z,2.13
2018-12-29T01:30:24.579Z,2.16
2018-12-29T01:31:24.595Z,2.16
2018-12-29T01:32:24.535Z,2.2
2018-12-29T01:33:24.523Z,2.16
2018-12-29T01:34:24.502Z,2.15
2018-12-29T01:35:24.493Z,2.16
2018-12-29T01:36:24.473Z,2.22
2018-12-29T01:37:24.465Z,2.15
2018-12-29T01:38:24.431Z,2.18
2018-12-29T01:39:24.417Z,2.24
2018-12-29T01:40:24.401Z,2.16
2018-12-29T01:41:24.135Z,2.16
2018-12-29T01:42:24.357Z,2.18
2018-12-29T01:43:24.117Z,2.16
2018-12-29T01:44:24.323Z,2.13
2018-12-29T01:45:24.314Z,2.16
2018-12-29T01:46:24.297Z,2.15
2018-12-29T01:47:24.278Z,2.15
2018-12-29T01:48:24.257Z,2.15
2018-12-29T01:49:24.243Z,2.08
2018-12-29T01:50:24.224Z,2.18
2018-12-29T01:51:24.202Z,2.12
2018-12-29T01:52:24.188Z,2.12
2018-12-29T01:53:24.172Z,2.12
2018-12-29T01:54:24.153Z,2.2
2018-12-29T01:55:23.886Z,2.12
2018-12-29T01:56:24.119Z,2.12
2018-12-29T01:57:24.091Z,2.08
2018-12-29T01:58:24.083Z,2.13
2018-12-29T01:59:23.815Z,2.18
2018-12-29T02:00:24.046Z,2.15
2018-12-29T02:01:24.045Z,2.12
2018-12-29T02:02:24.012Z,2.18
2018-12-29T02:03:24.003Z,2.13
2018-12-29T02:04:23.965Z,2.24
2018-12-29T02:05:23.953Z,2.12
2018-12-29T02:06:23.940Z,2.13
2018-12-29T02:07:23.677Z,2.15
2018-12-29T02:08:23.899Z,2.11
2018-12-29T02:09:23.887Z,2.15
2018-12-29T02:10:23.869Z,2.12
2018-12-29T02:11:23.847Z,2.15
2018-12-29T02:12:23.826Z,2.12
2018-12-29T02:13:23.563Z,2.13
2018-12-29T02:14:23.799Z,2.11
2018-12-29T02:15:29.553Z,2.13
2018-12-29T02:16:23.761Z,2.11
2018-12-29T02:17:23.756Z,2.09
2018-12-29T02:18:23.720Z,2.05
2018-12-29T02:19:23.703Z,2.18
2018-12-29T02:20:23.687Z,2.09
2018-12-29T02:21:23.672Z,2.16
2018-12-29T02:22:23.404Z,2.18
2018-12-29T02:23:23.635Z,2.11
2018-12-29T02:24:23.619Z,2.11
2018-12-29T02:25:23.597Z,2.13
2018-12-29T02:26:23.338Z,2.12
2018-12-29T02:27:23.570Z,2.13
2018-12-29T02:28:23.549Z,2.15
2018-12-29T02:29:23.524Z,2.08
2018-12-29T02:30:23.510Z,2.15
2018-12-29T02:31:23.249Z,2.11
2018-12-29T02:32:23.227Z,2.13
2018-12-29T02:33:23.225Z,2.04
2018-12-29T02:34:23.438Z,2.04
2018-12-29T02:35:23.426Z,2.06
2018-12-29T02:36:23.404Z,2.08
2018-12-29T02:37:23.389Z,2.08
2018-12-29T02:38:23.378Z,2.09
2018-12-29T02:39:23.351Z,2.06
2018-12-29T02:40:23.431Z,2.11
2018-12-29T02:41:23.321Z,2.01
2018-12-29T02:42:23.313Z,2.16
2018-12-29T02:43:23.280Z,2.12
2018-12-29T02:44:22.767Z,2.11
2018-12-29T02:45:23.247Z,2.08
2018-12-29T02:46:23.233Z,2.02
2018-12-29T02:47:23.286Z,2.06
2018-12-29T02:48:22.973Z,2.04
2018-12-29T02:49:23.173Z,2.09
2018-12-29T02:50:23.195Z,2.08
2018-12-29T02:51:23.146Z,2.08
2018-12-29T02:52:23.119Z,2.12
2018-12-29T02:53:23.104Z,2.08
2018-12-29T02:54:23.090Z,2.08
2018-12-29T02:55:23.065Z,2.04
2018-12-29T02:56:23.051Z,2.06
2018-12-29T02:57:23.040Z,2.11
2018-12-29T02:58:23.020Z,2.11
2018-12-29T02:59:22.997Z,2.06
2018-12-29T03:00:22.986Z,2.11
2018-12-29T03:01:22.972Z,2.12
2018-12-29T03:02:22.945Z,2.04
2018-12-29T03:03:22.934Z,2.08
2018-12-29T03:04:22.907Z,2.04
2018-12-29T03:05:23.025Z,1.97
2018-12-29T03:06:22.877Z,2.04
2018-12-29T03:07:22.861Z,2.06
2018-12-29T03:08:22.592Z,2.02
2018-12-29T03:09:22.817Z,1.94
2018-12-29T03:10:22.803Z,1.98
2018-12-29T03:11:22.537Z,2.02
2018-12-29T03:12:22.771Z,1.98
2018-12-29T03:13:22.575Z,2.11
2018-12-29T03:14:22.734Z,2.08
2018-12-29T03:15:22.713Z,2.08
2018-12-29T03:16:22.455Z,2.12
2018-12-29T03:17:22.681Z,2.06
2018-12-29T03:18:22.668Z,2.06
2018-12-29T03:19:22.644Z,2.12
2018-12-29T03:20:22.639Z,2.08
2018-12-29T03:21:22.623Z,2.08
2018-12-29T03:22:22.588Z,2.05
2018-12-29T03:23:22.570Z,2.09
2018-12-29T03:24:22.565Z,2.09
2018-12-29T03:25:22.537Z,2.09
2018-12-29T03:26:22.521Z,2.06
2018-12-29T03:27:22.254Z,2.05
2018-12-29T03:28:22.489Z,2.12
2018-12-29T03:29:22.468Z,2.08
2018-12-29T03:30:22.482Z,2.11
2018-12-29T03:31:22.446Z,2.01
2018-12-29T03:32:22.426Z,2.02
2018-12-29T03:33:22.406Z,2.04
2018-12-29T03:34:22.458Z,2.02
2018-12-29T03:35:22.369Z,1.98
2018-12-29T03:36:22.343Z,2.05
2018-12-29T03:37:22.088Z,1.94
2018-12-29T03:38:22.309Z,1.92
2018-12-29T03:39:22.296Z,1.94
2018-12-29T03:40:22.021Z,1.89
2018-12-29T03:41:22.253Z,2.01
2018-12-29T03:42:22.238Z,1.89
2018-12-29T03:43:22.230Z,1.9
2018-12-29T03:44:22.203Z,1.86
2018-12-29T03:45:22.180Z,2.01
2018-12-29T03:46:22.170Z,1.92
2018-12-29T03:47:21.909Z,1.89
2018-12-29T03:48:22.133Z,1.84
2018-12-29T03:49:22.116Z,1.86
2018-12-29T03:50:22.092Z,2.02
2018-12-29T03:51:22.081Z,1.89
2018-12-29T03:52:22.063Z,1.97
2018-12-29T03:53:22.047Z,1.92
2018-12-29T03:54:22.025Z,1.98
2018-12-29T03:55:21.754Z,1.82
2018-12-29T03:56:22.000Z,1.94
2018-12-29T03:57:21.975Z,1.83
2018-12-29T03:58:21.959Z,1.84
2018-12-29T03:59:21.940Z,1.98
2018-12-29T04:00:21.924Z,1.94
2018-12-29T04:01:21.915Z,2.02
2018-12-29T04:02:21.999Z,1.98
2018-12-29T04:03:21.880Z,1.93
2018-12-29T04:04:21.847Z,1.94
2018-12-29T04:05:21.830Z,1.92
2018-12-29T04:06:21.818Z,1.93
2018-12-29T04:07:21.301Z,1.97
2018-12-29T04:08:21.532Z,1.9
2018-12-29T04:09:21.864Z,1.94
2018-12-29T04:10:21.749Z,1.93
2018-12-29T04:11:21.727Z,1.98
2018-12-29T04:12:21.703Z,1.97
2018-12-29T04:13:21.688Z,1.94
2018-12-29T04:14:21.677Z,1.93
2018-12-29T04:15:21.666Z,1.84
2018-12-29T04:16:21.640Z,1.84
2018-12-29T04:17:21.621Z,1.97
2018-12-29T04:18:21.602Z,1.83
2018-12-29T04:19:21.585Z,1.86
2018-12-29T04:20:21.825Z,1.79
2018-12-29T04:21:21.550Z,1.86
2018-12-29T04:22:21.295Z,1.87
2018-12-29T04:23:21.513Z,1.83
2018-12-29T04:24:21.495Z,1.83
2018-12-29T04:25:21.475Z,1.84
2018-12-29T04:26:21.458Z,1.87
2018-12-29T04:27:21.435Z,1.76
2018-12-29T04:28:21.422Z,1.74
2018-12-29T04:29:21.406Z,1.75
2018-12-29T04:30:21.383Z,1.69
2018-12-29T04:31:21.369Z,1.76
2018-12-29T04:32:21.350Z,1.74
2018-12-29T04:33:21.341Z,1.69
2018-12-29T04:34:21.330Z,1.68
2018-12-29T04:35:21.298Z,1.75
2018-12-29T04:36:21.034Z,1.78
2018-12-29T04:37:21.014Z,1.75
2018-12-29T04:38:21.243Z,1.69
2018-12-29T04:39:21.221Z,1.75
2018-12-29T04:40:21.212Z,1.79
2018-12-29T04:41:21.192Z,1.74
2018-12-29T04:42:21.174Z,1.72
2018-12-29T04:43:20.910Z,1.71
2018-12-29T04:44:21.136Z,1.71
2018-12-29T04:45:21.122Z,1.72
2018-12-29T04:46:21.108Z,1.69
2018-12-29T04:47:21.160Z,1.65
2018-12-29T04:48:21.069Z,1.61
2018-12-29T04:49:21.061Z,1.66
2018-12-29T04:50:20.785Z,1.68
2018-12-29T04:51:21.014Z,1.66
2018-12-29T04:52:20.996Z,1.68
2018-12-29T04:53:20.978Z,1.56
2018-12-29T04:54:20.710Z,1.56
2018-12-29T04:55:20.693Z,1.61
2018-12-29T04:56:20.673Z,1.6
2018-12-29T04:57:20.913Z,1.58
2018-12-29T04:58:20.888Z,1.68
2018-12-29T04:59:20.868Z,1.57
2018-12-29T05:00:20.851Z,1.6
2018-12-29T05:01:20.832Z,1.64
2018-12-29T05:02:20.826Z,1.65
2018-12-29T05:03:20.798Z,1.58
2018-12-29T05:04:20.794Z,1.57
2018-12-29T05:05:20.764Z,1.65
2018-12-29T05:06:20.495Z,1.74
2018-12-29T05:07:20.727Z,1.76
2018-12-29T05:08:20.712Z,1.72
2018-12-29T05:09:20.443Z,1.74
2018-12-29T05:10:20.668Z,1.75
2018-12-29T05:11:20.654Z,1.74
2018-12-29T05:12:20.390Z,1.66
2018-12-29T05:13:20.367Z,1.66
2018-12-29T05:14:20.595Z,1.74
2018-12-29T05:15:20.580Z,1.68
2018-12-29T05:16:20.565Z,1.6
2018-12-29T05:17:20.541Z,1.69
2018-12-29T05:18:20.526Z,1.64
2018-12-29T05:19:20.514Z,1.58
2018-12-29T05:20:20.502Z,1.66
2018-12-29T05:21:20.479Z,1.66
2018-12-29T05:22:20.209Z,1.61
2018-12-29T05:23:20.433Z,1.66
2018-12-29T05:24:20.419Z,1.64
2018-12-29T05:25:20.403Z,1.64
2018-12-29T05:26:20.137Z,1.58
2018-12-29T05:27:20.368Z,1.64
2018-12-29T05:28:20.350Z,1.54
2018-12-29T05:29:20.323Z,1.6
2018-12-29T05:30:20.062Z,1.53
2018-12-29T05:31:20.450Z,1.53
2018-12-29T05:32:20.271Z,1.57
2018-12-29T05:33:20.275Z,1.53
2018-12-29T05:34:19.991Z,1.54
2018-12-29T05:35:20.226Z,1.5
2018-12-29T05:36:20.210Z,1.39
2018-12-29T05:37:20.185Z,1.39
2018-12-29T05:38:20.169Z,1.38
2018-12-29T05:39:20.152Z,1.36
2018-12-29T05:40:20.135Z,1.33
2018-12-29T05:41:20.112Z,1.38
2018-12-29T05:42:20.093Z,1.28
2018-12-29T05:43:20.081Z,1.36
2018-12-29T05:44:20.068Z,1.29
2018-12-29T05:45:20.039Z,1.35
2018-12-29T05:46:25.277Z,1.35
2018-12-29T05:47:20.008Z,1.33
2018-12-29T05:48:19.993Z,1.29
2018-12-29T05:49:19.970Z,1.3
2018-12-29T05:50:19.948Z,1.28
2018-12-29T05:51:19.930Z,1.29
2018-12-29T05:52:19.918Z,1.29
2018-12-29T05:53:19.896Z,1.15
2018-12-29T05:54:19.880Z,1.28
2018-12-29T05:55:19.861Z,1.29
2018-12-29T05:56:20.370Z,1.26
2018-12-29T05:57:19.832Z,1.32
2018-12-29T05:58:19.810Z,1.21
2018-12-29T05:59:19.787Z,1.3
2018-12-29T06:00:19.775Z,1.32
2018-12-29T06:01:19.507Z,1.21
2018-12-29T06:02:19.736Z,1.3
2018-12-29T06:03:19.469Z,1.29
2018-12-29T06:04:19.452Z,1.3
2018-12-29T06:05:19.674Z,1.26
2018-12-29T06:06:19.660Z,1.26
2018-12-29T06:07:19.649Z,1.26
2018-12-29T06:08:19.377Z,1.29
2018-12-29T06:09:19.619Z,1.26
2018-12-29T06:10:19.581Z,1.28
2018-12-29T06:11:19.567Z,1.26
2018-12-29T06:12:19.554Z,1.24
2018-12-29T06:13:19.535Z,1.24
2018-12-29T06:14:19.516Z,1.21
2018-12-29T06:15:19.498Z,1.26
2018-12-29T06:16:19.479Z,1.22
2018-12-29T06:17:19.459Z,1.22
2018-12-29T06:18:19.196Z,1.24
2018-12-29T06:19:19.179Z,1.29
2018-12-29T06:20:19.404Z,1.21
2018-12-29T06:21:19.386Z,1.2
2018-12-29T06:22:19.375Z,1.18
2018-12-29T06:23:19.347Z,1.18
2018-12-29T06:24:19.339Z,1.17
2018-12-29T06:25:19.324Z,1.15
2018-12-29T06:26:19.297Z,1.2
2018-12-29T06:27:19.275Z,1.18
2018-12-29T06:28:19.259Z,1.22
2018-12-29T06:29:19.249Z,1.14
2018-12-29T06:30:18.979Z,1.17
2018-12-29T06:31:19.203Z,1.2
2018-12-29T06:32:19.187Z,1.11
2018-12-29T06:33:18.916Z,1.15
2018-12-29T06:34:19.149Z,1.02
2018-12-29T06:35:20.263Z,1.1
2018-12-29T06:36:19.112Z,1.14
2018-12-29T06:37:19.094Z,1.07
2018-12-29T06:38:19.081Z,1.11
2018-12-29T06:39:19.057Z,1.12
2018-12-29T06:40:19.056Z,1.12
2018-12-29T06:41:19.016Z,1.1
2018-12-29T06:42:18.998Z,1.12
2018-12-29T06:43:18.978Z,1.12
2018-12-29T06:44:18.966Z,1.12
2018-12-29T06:45:18.947Z,1.07
2018-12-29T06:46:18.923Z,1.04
2018-12-29T06:47:18.905Z,1.11
2018-12-29T06:48:18.640Z,0.99
2018-12-29T06:49:18.875Z,1.1
2018-12-29T06:50:18.860Z,1.11
2018-12-29T06:51:18.839Z,1.07
2018-12-29T06:52:18.830Z,1.04
2018-12-29T06:53:18.303Z,0.97
2018-12-29T06:54:18.778Z,1.08
2018-12-29T06:55:18.764Z,1.08
2018-12-29T06:56:18.495Z,1.07
2018-12-29T06:57:18.725Z,1.08
2018-12-29T06:58:18.708Z,1.11
2018-12-29T06:59:18.694Z,1.08
2018-12-29T07:00:18.664Z,1.08
2018-12-29T07:01:18.710Z,1.08
2018-12-29T07:02:18.657Z,1.11
2018-12-29T07:03:18.617Z,1.1
2018-12-29T07:04:18.593Z,1.03
2018-12-29T07:05:18.579Z,1.17
2018-12-29T07:06:18.322Z,1.03
2018-12-29T07:07:18.291Z,1.04
2018-12-29T07:08:18.609Z,1.18
2018-12-29T07:09:18.271Z,1.04
2018-12-29T07:10:18.490Z,1.14
2018-12-29T07:11:18.470Z,1.1
2018-12-29T07:12:18.239Z,1.12
2018-12-29T07:13:18.426Z,1.07
2018-12-29T07:14:18.167Z,1.15
2018-12-29T07:15:18.391Z,1.11
2018-12-29T07:16:18.128Z,1.14
2018-12-29T07:17:18.364Z,1.15
2018-12-29T07:18:18.341Z,1.2
2018-12-29T07:19:18.320Z,1.15
2018-12-29T07:20:18.300Z,1.26
2018-12-29T07:21:18.280Z,1.22
2018-12-29T07:22:18.263Z,1.22
2018-12-29T07:23:18.247Z,1.28
2018-12-29T07:24:18.230Z,1.29
2018-12-29T07:25:17.960Z,1.22
2018-12-29T07:26:17.943Z,1.32
2018-12-29T07:27:18.166Z,1.24
2018-12-29T07:28:18.161Z,1.2
2018-12-29T07:29:18.144Z,1.26
2018-12-29T07:30:18.116Z,1.29
2018-12-29T07:31:18.105Z,1.24
2018-12-29T07:32:18.083Z,1.32
2018-12-29T07:33:18.060Z,1.21
2018-12-29T07:34:18.049Z,1.33
2018-12-29T07:35:19.279Z,1.29
2018-12-29T07:36:18.008Z,1.32
2018-12-29T07:37:17.990Z,1.28
2018-12-29T07:38:17.973Z,1.38
2018-12-29T07:39:17.958Z,1.35
2018-12-29T07:40:17.937Z,1.35
2018-12-29T07:41:17.915Z,1.33
2018-12-29T07:42:17.656Z,1.36
2018-12-29T07:43:17.882Z,1.35
2018-12-29T07:44:17.858Z,1.29
2018-12-29T07:45:17.843Z,1.33
2018-12-29T07:46:17.825Z,1.28
2018-12-29T07:47:17.557Z,1.39
2018-12-29T07:48:18.233Z,1.39
2018-12-29T07:49:17.774Z,1.33
2018-12-29T07:50:17.749Z,1.39
2018-12-29T07:51:17.739Z,1.35
2018-12-29T07:52:17.715Z,1.38
2018-12-29T07:53:17.445Z,1.39
2018-12-29T07:54:17.679Z,1.39
2018-12-29T07:55:17.661Z,1.48
2018-12-29T07:56:17.643Z,1.48
2018-12-29T07:57:17.662Z,1.54
2018-12-29T07:58:17.355Z,1.48
2018-12-29T07:59:17.591Z,1.48
2018-12-29T08:00:17.570Z,1.53
2018-12-29T08:01:17.546Z,1.48
2018-12-29T08:02:17.285Z,1.48
2018-12-29T08:03:17.521Z,1.56
2018-12-29T08:04:17.512Z,1.58
2018-12-29T08:05:17.477Z,1.53
2018-12-29T08:06:17.457Z,1.53
2018-12-29T08:07:17.436Z,1.42
2018-12-29T08:08:17.419Z,1.58
2018-12-29T08:09:17.405Z,1.53
2018-12-29T08:10:17.384Z,1.57
2018-12-29T08:11:17.373Z,1.54
2018-12-29T08:12:17.356Z,1.5
2018-12-29T08:13:17.331Z,1.56
2018-12-29T08:14:17.311Z,1.5
2018-12-29T08:15:17.293Z,1.54
2018-12-29T08:16:17.279Z,1.48
2018-12-29T08:17:17.468Z,1.47
2018-12-29T08:18:17.248Z,1.48
2018-12-29T08:19:16.977Z,1.53
2018-12-29T08:20:17.210Z,1.47
2018-12-29T08:21:18.708Z,1.42
2018-12-29T08:22:17.175Z,1.57
2018-12-29T08:23:17.152Z,1.48
2018-12-29T08:24:17.129Z,1.51
2018-12-29T08:25:17.114Z,1.46
2018-12-29T08:26:17.097Z,1.51
2018-12-29T08:27:17.076Z,1.38
2018-12-29T08:28:17.136Z,1.39
2018-12-29T08:29:17.047Z,1.4
2018-12-29T08:30:17.025Z,1.33
2018-12-29T08:31:17.011Z,1.38
2018-12-29T08:32:16.738Z,1.36
2018-12-29T08:33:16.719Z,1.33
2018-12-29T08:34:16.959Z,1.35
2018-12-29T08:35:16.936Z,1.42
2018-12-29T08:36:16.919Z,1.39
2018-12-29T08:37:16.894Z,1.32
2018-12-29T08:38:16.881Z,1.3
2018-12-29T08:39:16.861Z,1.29
2018-12-29T08:40:16.843Z,1.39
2018-12-29T08:41:17.784Z,1.26
2018-12-29T08:42:16.819Z,1.4
2018-12-29T08:43:16.788Z,1.42
2018-12-29T08:44:16.781Z,1.33
2018-12-29T08:45:16.749Z,1.42
2018-12-29T08:46:16.735Z,1.36
2018-12-29T08:47:16.719Z,1.38
2018-12-29T08:48:16.689Z,1.46
2018-12-29T08:49:16.680Z,1.46
2018-12-29T08:50:18.194Z,1.47
2018-12-29T08:51:16.639Z,1.51
2018-12-29T08:52:16.635Z,1.48
2018-12-29T08:53:16.606Z,1.53
2018-12-29T08:54:16.345Z,1.42
2018-12-29T08:55:16.576Z,1.47
2018-12-29T08:56:16.630Z,1.56
2018-12-29T08:57:16.284Z,1.46
2018-12-29T08:58:16.517Z,1.44
2018-12-29T08:59:16.258Z,1.47
2018-12-29T09:00:16.481Z,1.57
2018-12-29T09:01:16.467Z,1.47
2018-12-29T09:02:16.204Z,1.46
2018-12-29T09:03:16.425Z,1.4
2018-12-29T09:04:16.405Z,1.56
2018-12-29T09:05:16.387Z,1.44
2018-12-29T09:06:16.375Z,1.47
2018-12-29T09:07:16.352Z,1.48
2018-12-29T09:08:16.330Z,1.53
2018-12-29T09:09:16.322Z,1.54
2018-12-29T09:10:16.295Z,1.5
2018-12-29T09:11:16.298Z,1.57
2018-12-29T09:12:16.263Z,1.54
2018-12-29T09:13:16.245Z,1.53
2018-12-29T09:14:16.233Z,1.57
2018-12-29T09:15:15.954Z,1.57
2018-12-29T09:16:16.192Z,1.58
2018-12-29T09:17:17.192Z,1.65
2018-12-29T09:18:16.158Z,1.57
2018-12-29T09:19:15.884Z,1.68
2018-12-29T09:20:16.119Z,1.61
2018-12-29T09:21:16.101Z,1.57
2018-12-29T09:22:16.091Z,1.65
2018-12-29T09:23:16.065Z,1.64
2018-12-29T09:24:16.046Z,1.57
2018-12-29T09:25:16.029Z,1.66
2018-12-29T09:26:16.078Z,1.6
2018-12-29T09:27:15.999Z,1.61
2018-12-29T09:28:15.979Z,1.68
2018-12-29T09:29:15.955Z,1.71
2018-12-29T09:30:15.936Z,1.64
2018-12-29T09:31:15.922Z,1.57
2018-12-29T09:32:15.898Z,1.66
2018-12-29T09:33:15.885Z,1.66
2018-12-29T09:34:22.237Z,1.6
2018-12-29T09:35:15.599Z,1.6
2018-12-29T09:36:15.827Z,1.78
2018-12-29T09:37:15.809Z,1.78
2018-12-29T09:38:15.798Z,1.74
2018-12-29T09:39:15.527Z,1.72
2018-12-29T09:40:15.768Z,1.72
2018-12-29T09:41:15.488Z,1.75
2018-12-29T09:42:15.721Z,1.72
2018-12-29T09:43:15.699Z,1.71
2018-12-29T09:44:15.689Z,1.75
2018-12-29T09:45:15.661Z,1.69
2018-12-29T09:46:15.401Z,1.72
2018-12-29T09:47:22.125Z,1.71
2018-12-29T09:48:15.612Z,1.75
2018-12-29T09:49:15.588Z,1.78
2018-12-29T09:50:15.325Z,1.86
2018-12-29T09:51:15.559Z,1.83
2018-12-29T09:52:15.541Z,1.83
2018-12-29T09:53:15.521Z,1.71
2018-12-29T09:54:15.502Z,1.83
2018-12-29T09:55:15.482Z,1.82
2018-12-29T09:56:15.470Z,1.83
2018-12-29T09:57:15.445Z,1.72
2018-12-29T09:58:15.430Z,1.89
2018-12-29T09:59:15.415Z,1.79
2018-12-29T10:00:15.404Z,1.83
2018-12-29T10:01:15.374Z,1.83
2018-12-29T10:02:15.360Z,1.86
2018-12-29T10:03:15.340Z,1.92
2018-12-29T10:04:15.074Z,1.87
2018-12-29T10:05:15.314Z,1.94
2018-12-29T10:06:15.059Z,1.94
2018-12-29T10:07:15.271Z,1.87
2018-12-29T10:08:15.256Z,1.94
2018-12-29T10:09:15.238Z,2.05
2018-12-29T10:10:14.978Z,1.94
2018-12-29T10:11:15.200Z,1.98
2018-12-29T10:12:15.180Z,1.97
2018-12-29T10:13:15.167Z,1.93
2018-12-29T10:14:15.152Z,2.02
2018-12-29T10:15:15.126Z,1.84
2018-12-29T10:16:15.117Z,1.86
2018-12-29T10:17:15.098Z,1.89
2018-12-29T10:18:15.085Z,1.86
2018-12-29T10:19:15.059Z,1.87
2018-12-29T10:20:15.041Z,1.84
2018-12-29T10:21:15.019Z,1.86
2018-12-29T10:22:15.000Z,1.84
2018-12-29T10:23:14.761Z,1.86
2018-12-29T10:24:14.970Z,1.89
2018-12-29T10:25:14.952Z,1.92
2018-12-29T10:26:14.935Z,1.98
2018-12-29T10:27:14.924Z,1.94
2018-12-29T10:28:15.248Z,2.08
2018-12-29T10:29:14.879Z,1.98
2018-12-29T10:30:14.864Z,2.05
2018-12-29T10:31:14.845Z,2.12
2018-12-29T10:32:14.829Z,2.05
2018-12-29T10:33:14.809Z,2.09
2018-12-29T10:34:14.798Z,2.09
2018-12-29T10:35:14.774Z,2.04
2018-12-29T10:36:14.755Z,2.09
2018-12-29T10:37:14.744Z,2.09
2018-12-29T10:38:14.726Z,2.09
2018-12-29T10:39:14.709Z,2.11
2018-12-29T10:40:14.683Z,2.13
2018-12-29T10:41:14.424Z,2.15
2018-12-29T10:42:14.655Z,2.04
2018-12-29T10:43:14.637Z,2.06
2018-12-29T10:44:14.617Z,2.08
2018-12-29T10:45:14.599Z,2.13
2018-12-29T10:46:14.577Z,2.06
2018-12-29T10:47:14.561Z,2.05
2018-12-29T10:48:14.553Z,2.11
2018-12-29T10:49:14.279Z,2.08
2018-12-29T10:50:14.512Z,2.05
2018-12-29T10:51:14.546Z,2.05
2018-12-29T10:52:14.220Z,2.09
2018-12-29T10:53:14.457Z,2.09
2018-12-29T10:54:14.441Z,1.93
2018-12-29T10:55:14.172Z,1.98
2018-12-29T10:56:14.408Z,1.9
2018-12-29T10:57:14.388Z,1.98
2018-12-29T10:58:14.377Z,1.92
2018-12-29T10:59:14.355Z,1.87
2018-12-29T11:00:14.982Z,1.84
2018-12-29T11:01:14.330Z,1.84
2018-12-29T11:02:14.051Z,1.84
2018-12-29T11:03:14.275Z,1.86
2018-12-29T11:04:14.436Z,1.84
2018-12-29T11:05:14.243Z,1.98
2018-12-29T11:06:14.225Z,1.98
2018-12-29T11:07:14.036Z,2.02
2018-12-29T11:08:14.199Z,1.93
2018-12-29T11:09:14.179Z,2.01
2018-12-29T11:10:14.157Z,1.93
2018-12-29T11:11:14.146Z,2.02
2018-12-29T11:12:14.127Z,2.06
2018-12-29T11:13:14.103Z,2.01
2018-12-29T11:14:14.089Z,2.05
2018-12-29T11:15:14.078Z,2.11
2018-12-29T11:16:14.056Z,2.08
2018-12-29T11:17:14.045Z,2.04
2018-12-29T11:18:14.110Z,2.05
2018-12-29T11:19:13.999Z,2.08
2018-12-29T11:20:13.991Z,2.12
2018-12-29T11:21:13.973Z,2.11
2018-12-29T11:22:13.946Z,2.05
2018-12-29T11:23:13.934Z,2.11
2018-12-29T11:24:13.928Z,2.12
2018-12-29T11:25:13.904Z,2.01
2018-12-29T11:26:13.882Z,2.09
2018-12-29T11:27:13.864Z,2.06
2018-12-29T11:28:13.838Z,1.98
2018-12-29T11:29:13.827Z,1.97
2018-12-29T11:30:13.805Z,1.92
2018-12-29T11:31:13.598Z,1.93
2018-12-29T11:32:13.774Z,2.04
2018-12-29T11:33:13.756Z,1.98
2018-12-29T11:34:13.741Z,2.04
2018-12-29T11:35:13.720Z,2.05
2018-12-29T11:36:13.702Z,2.08
2018-12-29T11:37:13.684Z,2.09
2018-12-29T11:38:13.664Z,2.15
2018-12-29T11:39:13.651Z,2.13
2018-12-29T11:40:13.643Z,2.26
2018-12-29T11:41:13.366Z,2.38
2018-12-29T11:42:13.597Z,2.59
2018-12-29T11:43:13.575Z,2.65
2018-12-29T11:44:13.572Z,2.7
2018-12-29T11:45:13.545Z,2.76
2018-12-29T11:46:13.522Z,2.84
2018-12-29T11:47:13.260Z,2.8
2018-12-29T11:48:13.506Z,2.73
2018-12-29T11:49:20.358Z,2.81
2018-12-29T11:50:13.542Z,2.72
2018-12-29T11:51:13.518Z,2.8
2018-12-29T11:52:13.993Z,2.7
2018-12-29T11:53:13.432Z,2.59
2018-12-29T11:54:13.173Z,2.6
2018-12-29T11:55:13.161Z,2.72
2018-12-29T11:56:13.373Z,2.65
2018-12-29T11:57:13.355Z,2.55
2018-12-29T11:58:13.084Z,2.59
2018-12-29T11:59:13.320Z,2.63
2018-12-29T12:00:12.818Z,2.66
2018-12-29T12:01:14.771Z,2.69
2018-12-29T12:02:13.265Z,2.59
2018-12-29T12:03:13.341Z,2.55
2018-12-29T12:04:13.231Z,2.58
2018-12-29T12:05:13.238Z,2.55
2018-12-29T12:06:13.215Z,2.54
2018-12-29T12:07:13.185Z,2.51
2018-12-29T12:08:13.232Z,2.48
2018-12-29T12:09:13.150Z,2.52
2018-12-29T12:10:13.537Z,2.55
2018-12-29T12:11:13.173Z,2.51
2018-12-29T12:12:12.856Z,2.45
2018-12-29T12:13:13.090Z,2.45
2018-12-29T12:14:13.087Z,2.36
2018-12-29T12:15:13.062Z,2.38
2018-12-29T12:16:13.027Z,2.49
2018-12-29T12:17:13.054Z,2.47
2018-12-29T12:18:13.004Z,2.34
2018-12-29T12:19:13.281Z,2.38
2018-12-29T12:20:12.964Z,2.34
2018-12-29T12:21:12.703Z,2.41
2018-12-29T12:22:12.928Z,2.31
2018-12-29T12:23:12.907Z,2.36
2018-12-29T12:24:12.911Z,2.45
2018-12-29T12:25:12.625Z,2.33
2018-12-29T12:26:12.865Z,2.31
2018-12-29T12:27:13.279Z,2.36
2018-12-29T12:28:12.927Z,2.31
2018-12-29T12:29:13.427Z,2.4
2018-12-29T12:30:12.798Z,2.44
2018-12-29T12:31:12.781Z,2.45
2018-12-29T12:32:12.566Z,2.48
2018-12-29T12:33:12.495Z,2.49
2018-12-29T12:34:13.357Z,2.41
2018-12-29T12:35:12.459Z,2.42
2018-12-29T12:36:12.719Z,2.47
2018-12-29T12:37:12.682Z,2.47
2018-12-29T12:38:12.665Z,2.41
2018-12-29T12:39:12.909Z,2.42
2018-12-29T12:40:12.631Z,2.49
2018-12-29T12:41:12.609Z,2.45
2018-12-29T12:42:12.607Z,2.31
2018-12-29T12:43:13.251Z,2.4
2018-12-29T12:44:12.893Z,2.29
2018-12-29T12:45:12.547Z,2.3
2018-12-29T12:46:12.514Z,2.31
2018-12-29T12:47:12.505Z,2.34
2018-12-29T12:48:12.479Z,2.3
2018-12-29T12:49:12.478Z,2.3
2018-12-29T12:50:13.115Z,2.48
2018-12-29T12:51:12.194Z,2.36
2018-12-29T12:52:12.470Z,2.52
2018-12-29T12:53:12.973Z,2.49
2018-12-29T12:54:12.399Z,2.52
2018-12-29T12:55:12.373Z,2.49
2018-12-29T12:56:12.088Z,2.54
2018-12-29T12:57:12.799Z,2.55
2018-12-29T12:58:12.734Z,2.49
2018-12-29T12:59:12.292Z,2.41
2018-12-29T13:00:12.737Z,2.38
2018-12-29T13:01:12.251Z,2.36
2018-12-29T13:02:12.649Z,2.34
2018-12-29T13:03:12.235Z,2.29
2018-12-29T13:04:12.202Z,2.27
2018-12-29T13:05:12.181Z,2.13
2018-12-29T13:06:11.943Z,2.22
2018-12-29T13:07:12.147Z,2.12
2018-12-29T13:08:12.126Z,2.12
2018-12-29T13:09:12.119Z,2.09
2018-12-29T13:10:12.155Z,1.98
2018-12-29T13:11:12.092Z,1.84
2018-12-29T13:12:12.074Z,1.97
2018-12-29T13:13:11.818Z,1.84
2018-12-29T13:14:12.025Z,1.83
2018-12-29T13:15:12.009Z,1.89
2018-12-29T13:16:11.985Z,1.9
2018-12-29T13:17:11.985Z,1.86
2018-12-29T13:18:17.931Z,1.79
2018-12-29T13:19:12.152Z,1.86
2018-12-29T13:20:11.689Z,1.84